Terminal Aerodrome Forecast
Issued by NWS

Home | Current Version | Previous Version | Text Only | Print | Product List | Glossary On
Versions: 1 2 3 4 5 6 7 8 9 10 11 12 13 14 15
000
FTUS42 KTAE 301722
TAFABY
TAF
KABY 301722Z 3018/3118 16005KT P6SM VCTS BKN022 BKN030CB
     FM310000 12006KT P6SM SCT040
     FM310900 00000KT 5SM BR BKN009
     FM311400 34005KT P6SM SCT030=

USA.gov is the U.S. government's official web portal to all federal, state and local government web resources and services.